sensor_id;sensor_type;location;lat;lon;timestamp;pressure;altitude;pressure_sealevel;temperature;humidity
30073;BME280;16897;52.422;13.678;2022-08-19T00:02:36;100567.72;;;25.29;46.29
30073;BME280;16897;52.422;13.678;2022-08-19T00:06:39;100579.50;;;25.34;46.45
30073;BME280;16897;52.422;13.678;2022-08-19T00:10:41;100570.47;;;25.35;46.57
30073;BME280;16897;52.422;13.678;2022-08-19T00:14:42;100572.59;;;25.40;46.69
30073;BME280;16897;52.422;13.678;2022-08-19T00:18:44;100563.41;;;25.28;46.63
30073;BME280;16897;52.422;13.678;2022-08-19T00:22:45;100532.78;;;25.15;46.89
30073;BME280;16897;52.422;13.678;2022-08-19T00:26:48;100462.72;;;24.76;46.86
30073;BME280;16897;52.422;13.678;2022-08-19T00:30:50;100512.84;;;25.03;46.98
30073;BME280;16897;52.422;13.678;2022-08-19T00:34:53;100485.84;;;24.83;46.99
30073;BME280;16897;52.422;13.678;2022-08-19T00:38:54;100483.28;;;24.75;47.42
30073;BME280;16897;52.422;13.678;2022-08-19T00:42:56;100546.94;;;25.01;47.00
30073;BME280;16897;52.422;13.678;2022-08-19T00:46:58;100513.19;;;24.70;46.92
30073;BME280;16897;52.422;13.678;2022-08-19T00:51:00;100581.78;;;25.08;47.02
30073;BME280;16897;52.422;13.678;2022-08-19T00:55:05;100535.31;;;24.79;47.59
30073;BME280;16897;52.422;13.678;2022-08-19T00:59:10;100531.59;;;24.65;47.11
30073;BME280;16897;52.422;13.678;2022-08-19T01:03:18;100521.41;;;24.69;47.49
30073;BME280;16897;52.422;13.678;2022-08-19T01:07:20;100576.28;;;24.71;47.21
30073;BME280;16897;52.422;13.678;2022-08-19T01:11:21;100578.59;;;24.75;47.82
30073;BME280;16897;52.422;13.678;2022-08-19T01:15:29;100575.84;;;24.83;47.48
30073;BME280;16897;52.422;13.678;2022-08-19T01:19:40;100543.66;;;24.61;48.05
30073;BME280;16897;52.422;13.678;2022-08-19T01:23:43;100518.59;;;24.47;47.45
30073;BME280;16897;52.422;13.678;2022-08-19T01:27:47;100510.63;;;24.39;47.98
30073;BME280;16897;52.422;13.678;2022-08-19T01:31:48;100505.16;;;24.33;47.99
30073;BME280;16897;52.422;13.678;2022-08-19T01:35:54;100473.28;;;24.16;47.92
30073;BME280;16897;52.422;13.678;2022-08-19T01:40:04;100443.06;;;24.01;47.98
30073;BME280;16897;52.422;13.678;2022-08-19T01:44:07;100468.75;;;24.17;48.18
30073;BME280;16897;52.422;13.678;2022-08-19T01:48:09;100484.97;;;24.15;48.23
30073;BME280;16897;52.422;13.678;2022-08-19T01:52:11;100498.59;;;24.20;48.15
30073;BME280;16897;52.422;13.678;2022-08-19T01:56:12;100461.75;;;24.01;48.12
30073;BME280;16897;52.422;13.678;2022-08-19T02:00:15;100441.09;;;23.95;48.45
30073;BME280;16897;52.422;13.678;2022-08-19T02:04:18;100472.91;;;24.19;48.31
30073;BME280;16897;52.422;13.678;2022-08-19T02:08:19;100422.44;;;23.95;48.58
30073;BME280;16897;52.422;13.678;2022-08-19T02:12:21;100428.50;;;23.89;48.58
30073;BME280;16897;52.422;13.678;2022-08-19T02:16:23;100435.13;;;23.93;48.53
30073;BME280;16897;52.422;13.678;2022-08-19T02:20:24;100398.94;;;23.75;48.32
30073;BME280;16897;52.422;13.678;2022-08-19T02:24:26;100425.38;;;24.00;48.52
30073;BME280;16897;52.422;13.678;2022-08-19T02:28:28;100360.28;;;23.48;48.62
30073;BME280;16897;52.422;13.678;2022-08-19T02:32:30;100436.13;;;23.92;48.47
30073;BME280;16897;52.422;13.678;2022-08-19T02:36:31;100375.97;;;23.43;48.93
30073;BME280;16897;52.422;13.678;2022-08-19T02:40:33;100471.75;;;23.99;49.06
30073;BME280;16897;52.422;13.678;2022-08-19T02:44:35;100403.88;;;23.55;49.22
30073;BME280;16897;52.422;13.678;2022-08-19T02:48:36;100431.94;;;23.74;48.92
30073;BME280;16897;52.422;13.678;2022-08-19T02:52:38;100386.53;;;23.36;48.82
30073;BME280;16897;52.422;13.678;2022-08-19T02:56:41;100486.81;;;23.92;49.29
30073;BME280;16897;52.422;13.678;2022-08-19T03:00:45;100478.34;;;23.88;49.33
30073;BME280;16897;52.422;13.678;2022-08-19T03:04:47;100405.28;;;23.43;49.08
30073;BME280;16897;52.422;13.678;2022-08-19T03:08:49;100447.13;;;23.74;49.18
30073;BME280;16897;52.422;13.678;2022-08-19T03:12:50;100457.66;;;23.90;49.35
30073;BME280;16897;52.422;13.678;2022-08-19T03:16:52;100419.31;;;23.60;49.41
30073;BME280;16897;52.422;13.678;2022-08-19T03:20:54;100452.34;;;23.90;49.45
30073;BME280;16897;52.422;13.678;2022-08-19T03:24:56;100440.88;;;23.81;49.26
30073;BME280;16897;52.422;13.678;2022-08-19T03:29:00;100429.09;;;23.76;49.79
30073;BME280;16897;52.422;13.678;2022-08-19T03:33:02;100416.50;;;23.61;49.67
30073;BME280;16897;52.422;13.678;2022-08-19T03:37:06;100445.44;;;23.73;49.47
30073;BME280;16897;52.422;13.678;2022-08-19T03:41:11;100461.28;;;23.74;49.74
30073;BME280;16897;52.422;13.678;2022-08-19T03:45:13;100403.94;;;23.47;49.85
30073;BME280;16897;52.422;13.678;2022-08-19T03:49:15;100423.38;;;23.56;49.54
30073;BME280;16897;52.422;13.678;2022-08-19T03:53:16;100462.56;;;23.78;49.90
30073;BME280;16897;52.422;13.678;2022-08-19T03:57:18;100375.25;;;23.26;49.71
30073;BME280;16897;52.422;13.678;2022-08-19T04:01:22;100445.44;;;23.73;50.06
30073;BME280;16897;52.422;13.678;2022-08-19T04:05:24;100432.84;;;23.58;49.92
30073;BME280;16897;52.422;13.678;2022-08-19T04:09:25;100439.47;;;23.62;50.12
30073;BME280;16897;52.422;13.678;2022-08-19T04:13:27;100463.59;;;23.69;49.73
30073;BME280;16897;52.422;13.678;2022-08-19T04:17:28;100391.91;;;23.28;50.10
30073;BME280;16897;52.422;13.678;2022-08-19T04:21:30;100484.34;;;23.90;50.06
30073;BME280;16897;52.422;13.678;2022-08-19T04:25:37;100378.56;;;23.28;50.36
30073;BME280;16897;52.422;13.678;2022-08-19T04:29:39;100393.84;;;23.34;50.05
30073;BME280;16897;52.422;13.678;2022-08-19T04:33:41;100463.59;;;23.77;49.93
30073;BME280;16897;52.422;13.678;2022-08-19T04:37:43;100487.81;;;23.91;50.16
30073;BME280;16897;52.422;13.678;2022-08-19T04:41:45;100477.88;;;23.84;50.19
30073;BME280;16897;52.422;13.678;2022-08-19T04:46:10;100469.88;;;23.84;50.18
30073;BME280;16897;52.422;13.678;2022-08-19T04:50:13;100390.00;;;23.37;50.36
30073;BME280;16897;52.422;13.678;2022-08-19T04:54:16;100449.88;;;23.80;50.44
30073;BME280;16897;52.422;13.678;2022-08-19T04:58:18;100441.88;;;23.80;50.45
30073;BME280;16897;52.422;13.678;2022-08-19T05:02:20;100443.72;;;23.80;50.51
30073;BME280;16897;52.422;13.678;2022-08-19T05:06:22;100413.38;;;23.58;50.48
30073;BME280;16897;52.422;13.678;2022-08-19T05:10:23;100440.94;;;23.65;50.27
30073;BME280;16897;52.422;13.678;2022-08-19T05:14:25;100414.53;;;23.55;50.77
30073;BME280;16897;52.422;13.678;2022-08-19T05:18:27;100433.94;;;23.72;50.72
30073;BME280;16897;52.422;13.678;2022-08-19T05:22:47;100458.00;;;23.87;50.75
30073;BME280;16897;52.422;13.678;2022-08-19T05:26:50;100428.66;;;23.64;50.73
30073;BME280;16897;52.422;13.678;2022-08-19T05:30:52;100447.59;;;23.77;50.50
30073;BME280;16897;52.422;13.678;2022-08-19T05:34:56;100413.00;;;23.61;50.56
30073;BME280;16897;52.422;13.678;2022-08-19T05:38:58;100403.53;;;23.58;50.43
30073;BME280;16897;52.422;13.678;2022-08-19T05:42:59;100456.34;;;23.86;50.65
30073;BME280;16897;52.422;13.678;2022-08-19T05:47:02;100448.72;;;23.83;50.93
30073;BME280;16897;52.422;13.678;2022-08-19T05:51:06;100457.38;;;23.85;50.86
30073;BME280;16897;52.422;13.678;2022-08-19T05:55:07;100459.31;;;23.91;50.77
30073;BME280;16897;52.422;13.678;2022-08-19T05:59:09;100464.47;;;23.93;50.87
30073;BME280;16897;52.422;13.678;2022-08-19T06:03:12;100464.13;;;23.96;51.01
30073;BME280;16897;52.422;13.678;2022-08-19T06:07:14;100435.78;;;23.72;50.86
30073;BME280;16897;52.422;13.678;2022-08-19T06:15:23;100476.44;;;23.97;51.17
30073;BME280;16897;52.422;13.678;2022-08-19T06:19:27;100465.97;;;23.95;50.95
30073;BME280;16897;52.422;13.678;2022-08-19T06:23:30;100429.94;;;23.76;51.19
30073;BME280;16897;52.422;13.678;2022-08-19T06:27:32;100465.03;;;24.03;51.04
30073;BME280;16897;52.422;13.678;2022-08-19T06:31:35;100478.63;;;24.16;51.38
30073;BME280;16897;52.422;13.678;2022-08-19T06:35:39;100471.78;;;24.14;51.26
30073;BME280;16897;52.422;13.678;2022-08-19T06:39:43;100450.16;;;24.08;51.72
30073;BME280;16897;52.422;13.678;2022-08-19T06:43:45;100476.91;;;24.23;51.60
30073;BME280;16897;52.422;13.678;2022-08-19T06:47:47;100481.22;;;24.24;51.54
30073;BME280;16897;52.422;13.678;2022-08-19T06:51:50;100468.31;;;24.13;51.37
30073;BME280;16897;52.422;13.678;2022-08-19T06:55:52;100462.22;;;24.04;51.33
30073;BME280;16897;52.422;13.678;2022-08-19T07:00:04;100510.13;;;24.36;51.18
30073;BME280;16897;52.422;13.678;2022-08-19T07:04:07;100511.44;;;24.40;51.16
30073;BME280;16897;52.422;13.678;2022-08-19T07:08:09;100503.28;;;24.41;51.62
30073;BME280;16897;52.422;13.678;2022-08-19T07:12:12;100461.97;;;24.14;51.27
30073;BME280;16897;52.422;13.678;2022-08-19T07:16:17;100518.81;;;24.61;51.69
30073;BME280;16897;52.422;13.678;2022-08-19T07:20:20;100507.19;;;24.54;51.78
30073;BME280;16897;52.422;13.678;2022-08-19T07:24:24;100512.97;;;24.57;51.54
30073;BME280;16897;52.422;13.678;2022-08-19T07:28:26;100517.97;;;24.60;51.60
30073;BME280;16897;52.422;13.678;2022-08-19T07:32:27;100525.25;;;24.66;51.43
30073;BME280;16897;52.422;13.678;2022-08-19T07:36:29;100515.31;;;24.60;51.86
30073;BME280;16897;52.422;13.678;2022-08-19T07:40:32;100535.22;;;24.72;51.75
30073;BME280;16897;52.422;13.678;2022-08-19T07:44:34;100533.84;;;24.77;51.63
30073;BME280;16897;52.422;13.678;2022-08-19T07:48:41;100506.00;;;24.56;51.70
30073;BME280;16897;52.422;13.678;2022-08-19T07:52:43;100508.66;;;24.56;51.62
30073;BME280;16897;52.422;13.678;2022-08-19T07:56:45;100545.66;;;24.82;52.02
30073;BME280;16897;52.422;13.678;2022-08-19T08:00:48;100535.78;;;24.83;51.63
30073;BME280;16897;52.422;13.678;2022-08-19T08:04:49;100554.31;;;24.99;51.92
30073;BME280;16897;52.422;13.678;2022-08-19T08:09:10;100548.44;;;25.04;51.94
30073;BME280;16897;52.422;13.678;2022-08-19T08:13:24;100554.75;;;25.03;51.89
30073;BME280;16897;52.422;13.678;2022-08-19T08:17:28;100533.69;;;24.93;52.11
30073;BME280;16897;52.422;13.678;2022-08-19T08:21:30;100556.44;;;25.04;51.83
30073;BME280;16897;52.422;13.678;2022-08-19T08:25:31;100573.88;;;25.14;52.16
30073;BME280;16897;52.422;13.678;2022-08-19T08:29:33;100565.31;;;25.19;52.16
30073;BME280;16897;52.422;13.678;2022-08-19T08:33:35;100519.41;;;25.01;51.91
30073;BME280;16897;52.422;13.678;2022-08-19T08:37:37;100573.22;;;25.27;52.13
30073;BME280;16897;52.422;13.678;2022-08-19T08:45:52;100583.66;;;25.37;52.15
30073;BME280;16897;52.422;13.678;2022-08-19T08:50:09;100567.06;;;25.27;52.21
30073;BME280;16897;52.422;13.678;2022-08-19T08:54:15;100574.81;;;25.36;52.54
30073;BME280;16897;52.422;13.678;2022-08-19T08:58:29;100584.22;;;25.47;52.05
30073;BME280;16897;52.422;13.678;2022-08-19T09:02:32;100590.38;;;25.48;52.28
30073;BME280;16897;52.422;13.678;2022-08-19T09:06:38;100593.13;;;25.54;52.11
30073;BME280;16897;52.422;13.678;2022-08-19T09:10:48;100588.44;;;25.56;52.64
30073;BME280;16897;52.422;13.678;2022-08-19T09:14:53;100599.41;;;25.61;52.16
30073;BME280;16897;52.422;13.678;2022-08-19T09:19:03;100599.50;;;25.68;52.44
30073;BME280;16897;52.422;13.678;2022-08-19T09:23:05;100586.13;;;25.68;52.34
30073;BME280;16897;52.422;13.678;2022-08-19T09:27:06;100558.03;;;25.57;52.38
30073;BME280;16897;52.422;13.678;2022-08-19T09:31:09;100555.13;;;25.59;52.43
30073;BME280;16897;52.422;13.678;2022-08-19T09:35:11;100573.84;;;25.74;52.45
30073;BME280;16897;52.422;13.678;2022-08-19T09:39:13;100590.16;;;25.79;52.22
30073;BME280;16897;52.422;13.678;2022-08-19T09:43:15;100589.44;;;25.85;52.36
30073;BME280;16897;52.422;13.678;2022-08-19T09:47:17;100537.13;;;25.68;52.70
30073;BME280;16897;52.422;13.678;2022-08-19T09:51:23;100521.34;;;25.73;52.67
30073;BME280;16897;52.422;13.678;2022-08-19T09:55:25;100525.31;;;25.77;52.63
30073;BME280;16897;52.422;13.678;2022-08-19T09:59:27;100519.38;;;25.81;52.54
30073;BME280;16897;52.422;13.678;2022-08-19T10:03:30;100483.75;;;25.59;52.52
30073;BME280;16897;52.422;13.678;2022-08-19T10:07:32;100463.06;;;25.47;52.67
30073;BME280;16897;52.422;13.678;2022-08-19T10:11:34;100533.31;;;25.92;52.53
30073;BME280;16897;52.422;13.678;2022-08-19T10:15:36;100546.28;;;26.10;52.31
30073;BME280;16897;52.422;13.678;2022-08-19T10:19:40;100505.72;;;25.91;52.77
30073;BME280;16897;52.422;13.678;2022-08-19T10:23:45;100552.63;;;26.30;52.42
30073;BME280;16897;52.422;13.678;2022-08-19T10:27:47;100505.59;;;25.99;52.40
30073;BME280;16897;52.422;13.678;2022-08-19T10:31:49;100516.00;;;26.09;52.65
30073;BME280;16897;52.422;13.678;2022-08-19T10:35:59;100539.25;;;26.30;52.85
30073;BME280;16897;52.422;13.678;2022-08-19T10:40:03;100496.53;;;26.00;52.39
30073;BME280;16897;52.422;13.678;2022-08-19T10:44:08;100514.84;;;26.18;52.79
30073;BME280;16897;52.422;13.678;2022-08-19T10:48:10;100491.84;;;26.02;52.30
30073;BME280;16897;52.422;13.678;2022-08-19T10:52:13;100541.56;;;26.33;52.33
30073;BME280;16897;52.422;13.678;2022-08-19T10:56:34;100535.06;;;26.21;52.84
30073;BME280;16897;52.422;13.678;2022-08-19T11:01:05;100564.44;;;26.36;52.89
30073;BME280;16897;52.422;13.678;2022-08-19T11:05:07;100484.41;;;25.83;52.55
30073;BME280;16897;52.422;13.678;2022-08-19T11:09:11;100562.97;;;26.33;52.90
30073;BME280;16897;52.422;13.678;2022-08-19T11:13:12;100573.31;;;26.36;52.72
30073;BME280;16897;52.422;13.678;2022-08-19T11:17:14;100546.41;;;26.23;52.58
30073;BME280;16897;52.422;13.678;2022-08-19T11:21:21;100545.75;;;26.21;52.98
30073;BME280;16897;52.422;13.678;2022-08-19T11:25:23;100566.28;;;26.35;52.98
30073;BME280;16897;52.422;13.678;2022-08-19T11:29:25;100562.97;;;26.33;52.37
30073;BME280;16897;52.422;13.678;2022-08-19T11:33:31;100577.88;;;26.42;52.96
30073;BME280;16897;52.422;13.678;2022-08-19T11:37:33;100577.22;;;26.40;52.53
30073;BME280;16897;52.422;13.678;2022-08-19T11:41:38;100560.22;;;26.26;53.14
30073;BME280;16897;52.422;13.678;2022-08-19T11:45:40;100598.03;;;26.38;52.82
30073;BME280;16897;52.422;13.678;2022-08-19T11:49:42;100580.00;;;26.25;52.83
30073;BME280;16897;52.422;13.678;2022-08-19T11:53:44;100607.09;;;26.37;53.11
30073;BME280;16897;52.422;13.678;2022-08-19T11:57:46;100604.13;;;26.32;53.05
30073;BME280;16897;52.422;13.678;2022-08-19T12:01:48;100547.16;;;25.95;52.82
30073;BME280;16897;52.422;13.678;2022-08-19T12:05:49;100615.88;;;26.31;52.87
30073;BME280;16897;52.422;13.678;2022-08-19T12:09:51;100599.94;;;26.23;52.96
30073;BME280;16897;52.422;13.678;2022-08-19T12:13:53;100594.50;;;26.16;53.33
30073;BME280;16897;52.422;13.678;2022-08-19T12:17:56;100613.78;;;26.26;52.74
30073;BME280;16897;52.422;13.678;2022-08-19T12:21:59;100607.16;;;26.22;53.09
30073;BME280;16897;52.422;13.678;2022-08-19T12:26:03;100610.91;;;26.28;52.99
30073;BME280;16897;52.422;13.678;2022-08-19T12:30:08;100617.34;;;26.34;53.21
30073;BME280;16897;52.422;13.678;2022-08-19T12:34:10;100619.22;;;26.33;53.27
30073;BME280;16897;52.422;13.678;2022-08-19T12:38:13;100586.59;;;26.08;52.92
30073;BME280;16897;52.422;13.678;2022-08-19T12:42:15;100575.28;;;26.06;53.18
30073;BME280;16897;52.422;13.678;2022-08-19T12:46:19;100635.44;;;26.32;52.91
30073;BME280;16897;52.422;13.678;2022-08-19T12:50:21;100588.88;;;26.11;53.08
30073;BME280;16897;52.422;13.678;2022-08-19T12:54:23;100597.13;;;26.10;53.26
30073;BME280;16897;52.422;13.678;2022-08-19T12:58:25;100554.66;;;25.85;53.31
30073;BME280;16897;52.422;13.678;2022-08-19T13:02:27;100620.97;;;26.26;53.17
30073;BME280;16897;52.422;13.678;2022-08-19T13:06:28;100628.06;;;26.34;52.95
30073;BME280;16897;52.422;13.678;2022-08-19T13:10:32;100625.13;;;26.29;53.18
30073;BME280;16897;52.422;13.678;2022-08-19T13:14:36;100590.00;;;26.17;53.28
30073;BME280;16897;52.422;13.678;2022-08-19T13:18:40;100625.19;;;26.35;53.18
30073;BME280;16897;52.422;13.678;2022-08-19T13:22:42;100638.91;;;26.47;53.33
30073;BME280;16897;52.422;13.678;2022-08-19T13:26:45;100617.03;;;26.43;53.49
30073;BME280;16897;52.422;13.678;2022-08-19T13:30:47;100611.38;;;26.53;53.08
30073;BME280;16897;52.422;13.678;2022-08-19T13:35:07;100634.41;;;26.69;53.36
30073;BME280;16897;52.422;13.678;2022-08-19T13:39:09;100613.09;;;26.61;53.48
30073;BME280;16897;52.422;13.678;2022-08-19T13:43:11;100608.41;;;26.63;53.17
30073;BME280;16897;52.422;13.678;2022-08-19T13:47:13;100576.84;;;26.43;53.24
30073;BME280;16897;52.422;13.678;2022-08-19T13:51:16;100609.66;;;26.67;53.33
30073;BME280;16897;52.422;13.678;2022-08-19T13:55:18;100620.47;;;26.80;53.11
30073;BME280;16897;52.422;13.678;2022-08-19T13:59:20;100619.44;;;26.81;52.96
30073;BME280;16897;52.422;13.678;2022-08-19T14:03:22;100627.34;;;26.89;53.21
30073;BME280;16897;52.422;13.678;2022-08-19T14:07:23;100609.63;;;26.88;53.32
30073;BME280;16897;52.422;13.678;2022-08-19T14:11:25;100600.91;;;26.80;53.29
30073;BME280;16897;52.422;13.678;2022-08-19T14:15:27;100618.31;;;26.90;53.37
30073;BME280;16897;52.422;13.678;2022-08-19T14:19:29;100626.34;;;26.90;53.28
30073;BME280;16897;52.422;13.678;2022-08-19T14:23:32;100593.81;;;26.72;53.42
30073;BME280;16897;52.422;13.678;2022-08-19T14:27:35;100632.34;;;26.92;53.41
30073;BME280;16897;52.422;13.678;2022-08-19T14:31:36;100608.94;;;26.80;52.97
30073;BME280;16897;52.422;13.678;2022-08-19T14:35:38;100627.81;;;26.93;52.94
30073;BME280;16897;52.422;13.678;2022-08-19T14:39:43;100626.72;;;26.87;52.97
30073;BME280;16897;52.422;13.678;2022-08-19T14:43:47;100603.31;;;26.75;53.40
30073;BME280;16897;52.422;13.678;2022-08-19T14:47:49;100632.56;;;26.98;53.36
30073;BME280;16897;52.422;13.678;2022-08-19T14:51:51;100631.50;;;26.92;53.17
30073;BME280;16897;52.422;13.678;2022-08-19T14:55:52;100623.41;;;26.85;52.97
30073;BME280;16897;52.422;13.678;2022-08-19T14:59:55;100637.31;;;26.96;52.92
30073;BME280;16897;52.422;13.678;2022-08-19T15:03:58;100633.75;;;26.88;53.41
30073;BME280;16897;52.422;13.678;2022-08-19T15:08:03;100660.00;;;27.00;52.95
30073;BME280;16897;52.422;13.678;2022-08-19T15:12:05;100654.00;;;26.98;53.25
30073;BME280;16897;52.422;13.678;2022-08-19T15:16:07;100653.38;;;26.96;53.08
30073;BME280;16897;52.422;13.678;2022-08-19T15:20:10;100662.91;;;26.98;53.23
30073;BME280;16897;52.422;13.678;2022-08-19T15:24:12;100633.69;;;26.82;53.22
30073;BME280;16897;52.422;13.678;2022-08-19T15:28:13;100680.31;;;27.09;53.13
30073;BME280;16897;52.422;13.678;2022-08-19T15:32:16;100668.69;;;27.02;52.94
30073;BME280;16897;52.422;13.678;2022-08-19T15:36:18;100611.63;;;26.58;52.97
30073;BME280;16897;52.422;13.678;2022-08-19T15:40:20;100637.72;;;26.71;53.35
30073;BME280;16897;52.422;13.678;2022-08-19T15:44:21;100668.66;;;26.95;53.04
30073;BME280;16897;52.422;13.678;2022-08-19T15:48:23;100670.28;;;26.96;53.03
30073;BME280;16897;52.422;13.678;2022-08-19T15:52:25;100679.41;;;27.02;53.35
30073;BME280;16897;52.422;13.678;2022-08-19T15:56:27;100665.13;;;26.95;53.05
30073;BME280;16897;52.422;13.678;2022-08-19T16:00:48;100666.72;;;26.89;53.33
30073;BME280;16897;52.422;13.678;2022-08-19T16:05:11;100660.28;;;26.83;52.99
30073;BME280;16897;52.422;13.678;2022-08-19T16:09:32;100640.88;;;26.81;53.34
30073;BME280;16897;52.422;13.678;2022-08-19T16:13:34;100644.78;;;26.79;53.11
30073;BME280;16897;52.422;13.678;2022-08-19T16:17:37;100631.22;;;26.59;53.26
30073;BME280;16897;52.422;13.678;2022-08-19T16:21:38;100675.59;;;26.68;53.34
30073;BME280;16897;52.422;13.678;2022-08-19T16:25:40;100694.16;;;26.69;53.25
30073;BME280;16897;52.422;13.678;2022-08-19T16:29:41;100672.03;;;26.61;53.27
30073;BME280;16897;52.422;13.678;2022-08-19T16:33:42;100626.72;;;26.23;53.10
30073;BME280;16897;52.422;13.678;2022-08-19T16:37:44;100697.22;;;26.66;53.40
30073;BME280;16897;52.422;13.678;2022-08-19T16:41:46;100679.44;;;26.59;53.35
30073;BME280;16897;52.422;13.678;2022-08-19T16:45:48;100680.19;;;26.53;53.04
30073;BME280;16897;52.422;13.678;2022-08-19T16:49:50;100610.88;;;26.07;53.01
30073;BME280;16897;52.422;13.678;2022-08-19T16:53:52;100662.66;;;26.35;53.45
30073;BME280;16897;52.422;13.678;2022-08-19T16:57:53;100689.16;;;26.45;53.03
30073;BME280;16897;52.422;13.678;2022-08-19T17:01:55;100640.59;;;26.12;53.23
30073;BME280;16897;52.422;13.678;2022-08-19T17:05:57;100627.78;;;26.07;53.39
30073;BME280;16897;52.422;13.678;2022-08-19T17:10:03;100680.78;;;26.33;52.93
30073;BME280;16897;52.422;13.678;2022-08-19T17:14:05;100668.34;;;26.25;53.30
30073;BME280;16897;52.422;13.678;2022-08-19T17:18:07;100685.88;;;26.28;53.23
30073;BME280;16897;52.422;13.678;2022-08-19T17:22:10;100669.13;;;26.04;53.20
30073;BME280;16897;52.422;13.678;2022-08-19T17:26:14;100702.69;;;26.22;53.15
30073;BME280;16897;52.422;13.678;2022-08-19T17:30:17;100709.00;;;26.14;53.21
30073;BME280;16897;52.422;13.678;2022-08-19T17:34:18;100711.66;;;26.14;53.62
30073;BME280;16897;52.422;13.678;2022-08-19T17:38:20;100717.31;;;26.19;53.00
30073;BME280;16897;52.422;13.678;2022-08-19T17:42:23;100628.94;;;25.68;53.21
30073;BME280;16897;52.422;13.678;2022-08-19T17:46:24;100658.81;;;25.87;53.65
30073;BME280;16897;52.422;13.678;2022-08-19T17:50:25;100653.66;;;25.85;53.55
30073;BME280;16897;52.422;13.678;2022-08-19T17:54:27;100686.94;;;25.97;53.26
30073;BME280;16897;52.422;13.678;2022-08-19T17:58:28;100665.19;;;25.71;53.37
30073;BME280;16897;52.422;13.678;2022-08-19T18:02:29;100715.00;;;26.01;53.65
30073;BME280;16897;52.422;13.678;2022-08-19T18:06:31;100704.78;;;25.90;53.55
30073;BME280;16897;52.422;13.678;2022-08-19T18:10:32;100697.94;;;25.88;53.21
30073;BME280;16897;52.422;13.678;2022-08-19T18:14:36;100717.41;;;25.96;53.34
30073;BME280;16897;52.422;13.678;2022-08-19T18:18:40;100714.56;;;25.98;53.20
30073;BME280;16897;52.422;13.678;2022-08-19T18:22:45;100734.91;;;26.14;53.22
30073;BME280;16897;52.422;13.678;2022-08-19T18:26:46;100697.19;;;25.79;53.66
30073;BME280;16897;52.422;13.678;2022-08-19T18:30:49;100731.72;;;26.03;53.30
30073;BME280;16897;52.422;13.678;2022-08-19T18:34:51;100696.06;;;25.73;53.29
30073;BME280;16897;52.422;13.678;2022-08-19T18:38:55;100755.81;;;26.03;53.33
30073;BME280;16897;52.422;13.678;2022-08-19T18:43:15;100706.84;;;25.65;54.02
30073;BME280;16897;52.422;13.678;2022-08-19T18:47:19;100716.06;;;25.63;53.61
30073;BME280;16897;52.422;13.678;2022-08-19T18:51:39;100770.09;;;25.96;53.61
30073;BME280;16897;52.422;13.678;2022-08-19T18:55:41;100733.06;;;25.70;53.88
30073;BME280;16897;52.422;13.678;2022-08-19T18:59:43;100775.34;;;25.89;53.62
30073;BME280;16897;52.422;13.678;2022-08-19T19:03:49;100731.81;;;25.43;53.79
30073;BME280;16897;52.422;13.678;2022-08-19T19:07:51;100784.63;;;25.64;53.61
30073;BME280;16897;52.422;13.678;2022-08-19T19:11:57;100784.97;;;25.60;53.71
30073;BME280;16897;52.422;13.678;2022-08-19T19:15:59;100806.97;;;25.71;53.90
30073;BME280;16897;52.422;13.678;2022-08-19T19:20:04;100791.97;;;25.61;53.84
30073;BME280;16897;52.422;13.678;2022-08-19T19:24:06;100818.13;;;25.74;54.15
30073;BME280;16897;52.422;13.678;2022-08-19T19:28:09;100814.78;;;25.72;53.94
30073;BME280;16897;52.422;13.678;2022-08-19T19:32:25;100797.78;;;25.50;54.00
30073;BME280;16897;52.422;13.678;2022-08-19T19:36:32;100788.50;;;25.38;54.13
30073;BME280;16897;52.422;13.678;2022-08-19T19:40:34;100818.28;;;25.58;53.86
30073;BME280;16897;52.422;13.678;2022-08-19T19:44:39;100827.34;;;25.49;53.74
30073;BME280;16897;52.422;13.678;2022-08-19T19:48:41;100820.06;;;25.43;54.33
30073;BME280;16897;52.422;13.678;2022-08-19T19:52:45;100775.19;;;25.07;54.08
30073;BME280;16897;52.422;13.678;2022-08-19T19:56:47;100813.94;;;25.34;53.96
30073;BME280;16897;52.422;13.678;2022-08-19T20:00:50;100777.84;;;25.15;53.93
30073;BME280;16897;52.422;13.678;2022-08-19T20:04:52;100780.34;;;25.08;53.92
30073;BME280;16897;52.422;13.678;2022-08-19T20:08:57;100802.19;;;25.20;53.92
30073;BME280;16897;52.422;13.678;2022-08-19T20:13:09;100785.41;;;25.03;54.12
30073;BME280;16897;52.422;13.678;2022-08-19T20:17:11;100812.53;;;25.23;53.83
30073;BME280;16897;52.422;13.678;2022-08-19T20:21:13;100821.22;;;25.25;54.33
30073;BME280;16897;52.422;13.678;2022-08-19T20:25:17;100848.66;;;25.42;53.94
30073;BME280;16897;52.422;13.678;2022-08-19T20:29:19;100758.41;;;24.98;54.18
30073;BME280;16897;52.422;13.678;2022-08-19T20:33:20;100806.00;;;25.26;54.26
30073;BME280;16897;52.422;13.678;2022-08-19T20:37:22;100808.97;;;25.31;53.96
30073;BME280;16897;52.422;13.678;2022-08-19T20:41:23;100798.28;;;25.31;54.36
30073;BME280;16897;52.422;13.678;2022-08-19T20:45:25;100806.47;;;25.29;54.30
30073;BME280;16897;52.422;13.678;2022-08-19T20:49:26;100790.84;;;25.18;53.84
30073;BME280;16897;52.422;13.678;2022-08-19T20:53:27;100806.47;;;25.29;54.05
30073;BME280;16897;52.422;13.678;2022-08-19T20:57:29;100773.19;;;25.09;54.19
30073;BME280;16897;52.422;13.678;2022-08-19T21:01:30;100815.97;;;25.32;53.98
30073;BME280;16897;52.422;13.678;2022-08-19T21:05:32;100827.69;;;25.31;54.28